Bethnal Green, United Kingdom
Current Conditions -  °F | °C
As of 3:20 AM on Monday 22 Dec 2014 (Local Time) from EGLC Reporting Station
Overcast Overcast  
Wind Chill: 54°   Ceiling: 1000
Heat Index: 54°   Visibility: 6mi
Dew Point: 50°   Wind: 16mph
Humidity: 88%   Direction: 240°WSW
Pressure: 30.09"   Gusts: NA
Location:  51.53°N, 0.06°W
Report Text: EGLC 220320Z AUTO 24014KT 9999 FEW008/// OVC010/// 12/10 Q1019
Loading
Personal Weather Stations






























Interactive Weather Map New forecast layout! Learn more

10-Day Weather Forecast

Advertisements
Track Severe Weather on mobile